sensor_id;sensor_type;location;lat;lon;timestamp;temperature;humidity
44729;DHT22;30457;53.590;9.922;2023-04-05T00:00:33;6.10;42.70
44729;DHT22;30457;53.590;9.922;2023-04-05T00:04:58;6.10;42.80
44729;DHT22;30457;53.590;9.922;2023-04-05T00:09:24;6.10;43.00
44729;DHT22;30457;53.590;9.922;2023-04-05T00:13:50;6.00;43.10
44729;DHT22;30457;53.590;9.922;2023-04-05T00:18:16;6.00;43.20
44729;DHT22;30457;53.590;9.922;2023-04-05T00:22:48;5.90;43.30
44729;DHT22;30457;53.590;9.922;2023-04-05T00:27:14;5.90;43.40
44729;DHT22;30457;53.590;9.922;2023-04-05T00:31:40;5.90;43.60
44729;DHT22;30457;53.590;9.922;2023-04-05T00:36:09;5.80;43.40
44729;DHT22;30457;53.590;9.922;2023-04-05T00:40:35;5.80;43.80
44729;DHT22;30457;53.590;9.922;2023-04-05T00:45:01;5.70;43.80
44729;DHT22;30457;53.590;9.922;2023-04-05T00:49:31;5.70;43.80
44729;DHT22;30457;53.590;9.922;2023-04-05T00:53:57;5.60;43.70
44729;DHT22;30457;53.590;9.922;2023-04-05T00:58:24;5.60;43.90
44729;DHT22;30457;53.590;9.922;2023-04-05T01:02:51;5.60;44.10
44729;DHT22;30457;53.590;9.922;2023-04-05T01:07:27;5.50;44.20
44729;DHT22;30457;53.590;9.922;2023-04-05T01:11:57;5.50;44.30
44729;DHT22;30457;53.590;9.922;2023-04-05T01:16:24;5.40;44.20
44729;DHT22;30457;53.590;9.922;2023-04-05T01:21:06;5.40;44.30
44729;DHT22;30457;53.590;9.922;2023-04-05T01:30:09;5.30;44.40
44729;DHT22;30457;53.590;9.922;2023-04-05T01:34:49;5.30;44.60
44729;DHT22;30457;53.590;9.922;2023-04-05T01:39:16;5.20;44.70
44729;DHT22;30457;53.590;9.922;2023-04-05T01:43:43;5.20;44.60
44729;DHT22;30457;53.590;9.922;2023-04-05T01:48:09;5.20;44.70
44729;DHT22;30457;53.590;9.922;2023-04-05T01:52:35;5.20;44.90
44729;DHT22;30457;53.590;9.922;2023-04-05T01:57:01;5.10;44.90
44729;DHT22;30457;53.590;9.922;2023-04-05T02:01:26;5.00;44.80
44729;DHT22;30457;53.590;9.922;2023-04-05T02:05:52;5.00;45.00
44729;DHT22;30457;53.590;9.922;2023-04-05T02:10:18;5.00;45.10
44729;DHT22;30457;53.590;9.922;2023-04-05T02:14:44;4.90;45.10
44729;DHT22;30457;53.590;9.922;2023-04-05T02:19:10;4.90;45.20
44729;DHT22;30457;53.590;9.922;2023-04-05T02:23:36;4.90;45.20
44729;DHT22;30457;53.590;9.922;2023-04-05T02:28:02;4.80;45.30
44729;DHT22;30457;53.590;9.922;2023-04-05T02:32:27;4.80;45.50
44729;DHT22;30457;53.590;9.922;2023-04-05T02:36:53;4.80;45.50
44729;DHT22;30457;53.590;9.922;2023-04-05T02:41:18;4.80;45.60
44729;DHT22;30457;53.590;9.922;2023-04-05T02:45:45;4.80;45.70
44729;DHT22;30457;53.590;9.922;2023-04-05T02:50:10;4.70;45.60
44729;DHT22;30457;53.590;9.922;2023-04-05T02:54:41;4.70;45.70
44729;DHT22;30457;53.590;9.922;2023-04-05T02:59:08;4.70;45.80
44729;DHT22;30457;53.590;9.922;2023-04-05T03:03:34;4.60;45.90
44729;DHT22;30457;53.590;9.922;2023-04-05T03:08:00;4.60;45.90
44729;DHT22;30457;53.590;9.922;2023-04-05T03:12:29;4.60;46.00
44729;DHT22;30457;53.590;9.922;2023-04-05T03:16:55;4.50;46.00
44729;DHT22;30457;53.590;9.922;2023-04-05T03:21:30;4.50;46.20
44729;DHT22;30457;53.590;9.922;2023-04-05T03:26:04;4.50;46.20
44729;DHT22;30457;53.590;9.922;2023-04-05T03:30:34;4.40;46.20
44729;DHT22;30457;53.590;9.922;2023-04-05T03:35:12;4.40;46.80
44729;DHT22;30457;53.590;9.922;2023-04-05T03:39:44;4.40;46.30
44729;DHT22;30457;53.590;9.922;2023-04-05T03:44:09;4.30;46.40
44729;DHT22;30457;53.590;9.922;2023-04-05T03:48:35;4.30;46.50
44729;DHT22;30457;53.590;9.922;2023-04-05T03:53:01;4.30;46.60
44729;DHT22;30457;53.590;9.922;2023-04-05T03:57:28;4.20;46.60
44729;DHT22;30457;53.590;9.922;2023-04-05T04:01:57;4.20;46.70
44729;DHT22;30457;53.590;9.922;2023-04-05T04:06:23;4.20;46.80
44729;DHT22;30457;53.590;9.922;2023-04-05T04:10:51;4.10;46.70
44729;DHT22;30457;53.590;9.922;2023-04-05T04:15:26;4.10;46.80
44729;DHT22;30457;53.590;9.922;2023-04-05T04:20:16;4.10;47.00
44729;DHT22;30457;53.590;9.922;2023-04-05T04:25:09;4.10;47.00
44729;DHT22;30457;53.590;9.922;2023-04-05T04:29:55;4.00;47.10
44729;DHT22;30457;53.590;9.922;2023-04-05T04:34:48;4.00;47.20
44729;DHT22;30457;53.590;9.922;2023-04-05T04:39:32;4.00;47.30
44729;DHT22;30457;53.590;9.922;2023-04-05T04:44:21;4.00;47.40
44729;DHT22;30457;53.590;9.922;2023-04-05T04:49:24;4.00;47.50
44729;DHT22;30457;53.590;9.922;2023-04-05T04:53:50;4.00;47.50
44729;DHT22;30457;53.590;9.922;2023-04-05T04:58:16;4.00;47.60
44729;DHT22;30457;53.590;9.922;2023-04-05T05:02:47;4.00;47.70
44729;DHT22;30457;53.590;9.922;2023-04-05T05:07:15;4.00;47.80
44729;DHT22;30457;53.590;9.922;2023-04-05T05:11:41;4.00;47.90
44729;DHT22;30457;53.590;9.922;2023-04-05T05:16:10;4.00;48.00
44729;DHT22;30457;53.590;9.922;2023-04-05T05:20:35;4.10;48.20
44729;DHT22;30457;53.590;9.922;2023-04-05T05:25:02;4.10;48.30
44729;DHT22;30457;53.590;9.922;2023-04-05T05:29:28;4.20;48.60
44729;DHT22;30457;53.590;9.922;2023-04-05T05:33:53;4.30;48.60
44729;DHT22;30457;53.590;9.922;2023-04-05T05:38:19;4.30;48.90
44729;DHT22;30457;53.590;9.922;2023-04-05T05:42:45;4.40;49.20
44729;DHT22;30457;53.590;9.922;2023-04-05T05:47:10;4.50;49.40
44729;DHT22;30457;53.590;9.922;2023-04-05T05:51:36;4.70;49.60
44729;DHT22;30457;53.590;9.922;2023-04-05T05:56:01;4.80;49.80
44729;DHT22;30457;53.590;9.922;2023-04-05T06:00:27;4.90;49.60
44729;DHT22;30457;53.590;9.922;2023-04-05T06:04:53;5.10;49.90
44729;DHT22;30457;53.590;9.922;2023-04-05T06:09:19;5.20;49.80
44729;DHT22;30457;53.590;9.922;2023-04-05T06:13:46;5.40;50.00
44729;DHT22;30457;53.590;9.922;2023-04-05T06:18:12;5.50;49.80
44729;DHT22;30457;53.590;9.922;2023-04-05T06:22:38;5.70;49.50
44729;DHT22;30457;53.590;9.922;2023-04-05T06:27:05;5.90;49.00
44729;DHT22;30457;53.590;9.922;2023-04-05T06:31:32;6.10;48.60
44729;DHT22;30457;53.590;9.922;2023-04-05T06:35:58;6.30;47.90
44729;DHT22;30457;53.590;9.922;2023-04-05T06:40:23;6.50;47.20
44729;DHT22;30457;53.590;9.922;2023-04-05T06:44:49;6.70;47.20
44729;DHT22;30457;53.590;9.922;2023-04-05T06:49:15;6.90;46.80
44729;DHT22;30457;53.590;9.922;2023-04-05T06:53:40;7.10;46.10
44729;DHT22;30457;53.590;9.922;2023-04-05T06:58:06;7.40;46.00
44729;DHT22;30457;53.590;9.922;2023-04-05T07:02:31;7.60;45.80
44729;DHT22;30457;53.590;9.922;2023-04-05T07:06:59;7.90;45.50
44729;DHT22;30457;53.590;9.922;2023-04-05T07:11:26;8.20;45.20
44729;DHT22;30457;53.590;9.922;2023-04-05T07:15:58;8.50;44.70
44729;DHT22;30457;53.590;9.922;2023-04-05T07:20:23;8.80;44.20
44729;DHT22;30457;53.590;9.922;2023-04-05T07:24:49;9.10;43.60
44729;DHT22;30457;53.590;9.922;2023-04-05T07:29:16;9.40;43.70
44729;DHT22;30457;53.590;9.922;2023-04-05T07:33:42;9.80;43.30
44729;DHT22;30457;53.590;9.922;2023-04-05T07:38:08;10.10;42.60
44729;DHT22;30457;53.590;9.922;2023-04-05T07:42:35;10.30;42.60
44729;DHT22;30457;53.590;9.922;2023-04-05T07:47:01;10.60;42.50
44729;DHT22;30457;53.590;9.922;2023-04-05T07:51:28;10.80;42.00
44729;DHT22;30457;53.590;9.922;2023-04-05T07:55:53;11.00;41.60
44729;DHT22;30457;53.590;9.922;2023-04-05T08:00:22;11.10;41.70
44729;DHT22;30457;53.590;9.922;2023-04-05T08:04:47;11.30;40.70
44729;DHT22;30457;53.590;9.922;2023-04-05T08:09:13;11.50;39.90
44729;DHT22;30457;53.590;9.922;2023-04-05T08:13:39;11.60;39.20
44729;DHT22;30457;53.590;9.922;2023-04-05T08:18:06;11.70;39.00
44729;DHT22;30457;53.590;9.922;2023-04-05T08:22:31;11.90;38.80
44729;DHT22;30457;53.590;9.922;2023-04-05T08:26:57;12.00;38.70
44729;DHT22;30457;53.590;9.922;2023-04-05T08:31:22;12.10;38.10
44729;DHT22;30457;53.590;9.922;2023-04-05T08:35:48;12.30;37.80
44729;DHT22;30457;53.590;9.922;2023-04-05T08:40:13;12.40;37.90
44729;DHT22;30457;53.590;9.922;2023-04-05T08:44:40;12.60;37.90
44729;DHT22;30457;53.590;9.922;2023-04-05T08:49:06;12.70;38.00
44729;DHT22;30457;53.590;9.922;2023-04-05T08:53:32;12.90;37.00
44729;DHT22;30457;53.590;9.922;2023-04-05T08:57:59;13.00;37.00
44729;DHT22;30457;53.590;9.922;2023-04-05T09:02:25;13.10;36.50
44729;DHT22;30457;53.590;9.922;2023-04-05T09:06:54;13.20;36.40
44729;DHT22;30457;53.590;9.922;2023-04-05T09:11:22;13.30;36.60
44729;DHT22;30457;53.590;9.922;2023-04-05T09:15:48;13.50;36.30
44729;DHT22;30457;53.590;9.922;2023-04-05T09:20:13;13.60;36.50
44729;DHT22;30457;53.590;9.922;2023-04-05T09:24:41;13.80;36.80
44729;DHT22;30457;53.590;9.922;2023-04-05T09:29:07;13.90;36.60
44729;DHT22;30457;53.590;9.922;2023-04-05T09:33:33;14.10;35.50
44729;DHT22;30457;53.590;9.922;2023-04-05T09:38:03;14.20;36.30
44729;DHT22;30457;53.590;9.922;2023-04-05T09:42:41;14.40;36.10
44729;DHT22;30457;53.590;9.922;2023-04-05T09:47:14;14.50;35.50
44729;DHT22;30457;53.590;9.922;2023-04-05T09:51:41;14.70;35.10
44729;DHT22;30457;53.590;9.922;2023-04-05T09:56:10;14.90;34.80
44729;DHT22;30457;53.590;9.922;2023-04-05T10:00:36;15.10;35.00
44729;DHT22;30457;53.590;9.922;2023-04-05T10:05:05;15.20;34.10
44729;DHT22;30457;53.590;9.922;2023-04-05T10:09:31;15.40;33.50
44729;DHT22;30457;53.590;9.922;2023-04-05T10:14:00;15.50;34.10
44729;DHT22;30457;53.590;9.922;2023-04-05T10:18:42;15.70;33.50
44729;DHT22;30457;53.590;9.922;2023-04-05T10:23:20;15.80;33.50
44729;DHT22;30457;53.590;9.922;2023-04-05T10:27:47;15.90;33.20
44729;DHT22;30457;53.590;9.922;2023-04-05T10:32:40;15.90;32.80
44729;DHT22;30457;53.590;9.922;2023-04-05T10:37:06;15.90;31.60
44729;DHT22;30457;53.590;9.922;2023-04-05T10:41:35;15.70;32.10
44729;DHT22;30457;53.590;9.922;2023-04-05T10:46:05;15.70;32.60
44729;DHT22;30457;53.590;9.922;2023-04-05T10:50:31;15.70;33.30
44729;DHT22;30457;53.590;9.922;2023-04-05T10:54:58;15.70;33.20
44729;DHT22;30457;53.590;9.922;2023-04-05T10:59:27;15.70;34.30
44729;DHT22;30457;53.590;9.922;2023-04-05T11:03:53;15.80;34.30
44729;DHT22;30457;53.590;9.922;2023-04-05T11:08:20;15.90;32.60
44729;DHT22;30457;53.590;9.922;2023-04-05T11:17:25;15.90;32.50
44729;DHT22;30457;53.590;9.922;2023-04-05T11:22:00;15.90;31.70
44729;DHT22;30457;53.590;9.922;2023-04-05T11:26:52;15.80;32.60
44729;DHT22;30457;53.590;9.922;2023-04-05T11:31:19;15.80;32.10
44729;DHT22;30457;53.590;9.922;2023-04-05T11:35:59;15.80;32.60
44729;DHT22;30457;53.590;9.922;2023-04-05T11:40:35;15.80;32.30
44729;DHT22;30457;53.590;9.922;2023-04-05T11:45:01;15.80;32.20
44729;DHT22;30457;53.590;9.922;2023-04-05T11:49:27;15.80;32.40
44729;DHT22;30457;53.590;9.922;2023-04-05T11:53:52;15.90;32.90
44729;DHT22;30457;53.590;9.922;2023-04-05T11:58:21;16.00;33.30
44729;DHT22;30457;53.590;9.922;2023-04-05T12:02:46;16.30;32.50
44729;DHT22;30457;53.590;9.922;2023-04-05T12:07:18;16.40;32.60
44729;DHT22;30457;53.590;9.922;2023-04-05T12:11:44;16.50;32.30
44729;DHT22;30457;53.590;9.922;2023-04-05T12:16:10;16.60;32.70
44729;DHT22;30457;53.590;9.922;2023-04-05T12:20:35;16.60;32.10
44729;DHT22;30457;53.590;9.922;2023-04-05T12:25:01;16.50;31.00
44729;DHT22;30457;53.590;9.922;2023-04-05T12:29:27;16.40;31.20
44729;DHT22;30457;53.590;9.922;2023-04-05T12:33:58;16.30;31.70
44729;DHT22;30457;53.590;9.922;2023-04-05T12:38:25;16.10;31.70
44729;DHT22;30457;53.590;9.922;2023-04-05T12:42:51;15.90;32.20
44729;DHT22;30457;53.590;9.922;2023-04-05T12:47:17;15.80;32.20
44729;DHT22;30457;53.590;9.922;2023-04-05T12:51:44;15.70;32.50
44729;DHT22;30457;53.590;9.922;2023-04-05T12:56:10;15.60;32.60
44729;DHT22;30457;53.590;9.922;2023-04-05T13:00:36;15.50;32.90
44729;DHT22;30457;53.590;9.922;2023-04-05T13:05:01;15.40;32.60
44729;DHT22;30457;53.590;9.922;2023-04-05T13:09:27;15.40;33.60
44729;DHT22;30457;53.590;9.922;2023-04-05T13:13:52;15.50;33.90
44729;DHT22;30457;53.590;9.922;2023-04-05T13:18:18;15.80;34.80
44729;DHT22;30457;53.590;9.922;2023-04-05T13:22:44;16.30;34.70
44729;DHT22;30457;53.590;9.922;2023-04-05T13:27:10;16.70;34.20
44729;DHT22;30457;53.590;9.922;2023-04-05T13:31:36;17.00;34.10
44729;DHT22;30457;53.590;9.922;2023-04-05T13:36:01;17.10;33.40
44729;DHT22;30457;53.590;9.922;2023-04-05T13:40:27;17.20;32.60
44729;DHT22;30457;53.590;9.922;2023-04-05T13:44:52;17.20;31.50
44729;DHT22;30457;53.590;9.922;2023-04-05T13:49:18;17.10;31.50
44729;DHT22;30457;53.590;9.922;2023-04-05T13:53:43;17.00;31.30
44729;DHT22;30457;53.590;9.922;2023-04-05T13:58:09;16.80;31.10
44729;DHT22;30457;53.590;9.922;2023-04-05T14:02:35;16.60;31.50
44729;DHT22;30457;53.590;9.922;2023-04-05T14:07:00;16.40;31.20
44729;DHT22;30457;53.590;9.922;2023-04-05T14:11:26;16.20;31.90
44729;DHT22;30457;53.590;9.922;2023-04-05T14:15:52;16.00;32.00
44729;DHT22;30457;53.590;9.922;2023-04-05T14:20:17;15.90;32.10
44729;DHT22;30457;53.590;9.922;2023-04-05T14:24:43;15.80;32.60
44729;DHT22;30457;53.590;9.922;2023-04-05T14:29:08;15.70;33.00
44729;DHT22;30457;53.590;9.922;2023-04-05T14:33:34;15.70;32.70
44729;DHT22;30457;53.590;9.922;2023-04-05T14:38:00;15.70;32.60
44729;DHT22;30457;53.590;9.922;2023-04-05T14:42:25;15.60;32.50
44729;DHT22;30457;53.590;9.922;2023-04-05T14:46:51;15.60;32.10
44729;DHT22;30457;53.590;9.922;2023-04-05T14:51:16;15.60;32.10
44729;DHT22;30457;53.590;9.922;2023-04-05T14:55:43;15.70;32.40
44729;DHT22;30457;53.590;9.922;2023-04-05T15:00:09;15.70;32.60
44729;DHT22;30457;53.590;9.922;2023-04-05T15:04:35;15.70;33.10
44729;DHT22;30457;53.590;9.922;2023-04-05T15:09:01;15.80;32.70
44729;DHT22;30457;53.590;9.922;2023-04-05T15:13:26;15.80;32.00
44729;DHT22;30457;53.590;9.922;2023-04-05T15:17:52;15.70;32.10
44729;DHT22;30457;53.590;9.922;2023-04-05T15:22:18;15.70;31.90
44729;DHT22;30457;53.590;9.922;2023-04-05T15:26:45;15.70;32.10
44729;DHT22;30457;53.590;9.922;2023-04-05T15:31:10;15.60;31.60
44729;DHT22;30457;53.590;9.922;2023-04-05T15:35:36;15.60;32.20
44729;DHT22;30457;53.590;9.922;2023-04-05T15:40:01;15.50;32.40
44729;DHT22;30457;53.590;9.922;2023-04-05T15:44:27;15.50;32.80
44729;DHT22;30457;53.590;9.922;2023-04-05T15:48:53;15.50;32.80
44729;DHT22;30457;53.590;9.922;2023-04-05T15:53:18;15.40;32.90
44729;DHT22;30457;53.590;9.922;2023-04-05T15:57:44;15.40;33.20
44729;DHT22;30457;53.590;9.922;2023-04-05T16:02:10;15.30;33.10
44729;DHT22;30457;53.590;9.922;2023-04-05T16:06:35;15.20;33.10
44729;DHT22;30457;53.590;9.922;2023-04-05T16:11:01;15.10;33.30
44729;DHT22;30457;53.590;9.922;2023-04-05T16:15:27;15.10;33.50
44729;DHT22;30457;53.590;9.922;2023-04-05T16:19:52;15.00;33.70
44729;DHT22;30457;53.590;9.922;2023-04-05T16:24:18;15.00;33.90
44729;DHT22;30457;53.590;9.922;2023-04-05T16:28:44;14.90;33.90
44729;DHT22;30457;53.590;9.922;2023-04-05T16:33:09;14.90;33.80
44729;DHT22;30457;53.590;9.922;2023-04-05T16:37:35;14.90;34.10
44729;DHT22;30457;53.590;9.922;2023-04-05T16:42:01;15.00;34.10
44729;DHT22;30457;53.590;9.922;2023-04-05T16:46:26;15.00;34.00
44729;DHT22;30457;53.590;9.922;2023-04-05T16:50:54;15.00;34.30
44729;DHT22;30457;53.590;9.922;2023-04-05T16:55:20;15.00;34.40
44729;DHT22;30457;53.590;9.922;2023-04-05T16:59:46;15.00;34.50
44729;DHT22;30457;53.590;9.922;2023-04-05T17:04:11;15.00;34.40
44729;DHT22;30457;53.590;9.922;2023-04-05T17:08:37;14.90;34.70
44729;DHT22;30457;53.590;9.922;2023-04-05T17:13:02;14.90;34.90
44729;DHT22;30457;53.590;9.922;2023-04-05T17:17:28;14.80;35.20
44729;DHT22;30457;53.590;9.922;2023-04-05T17:21:54;14.80;35.40
44729;DHT22;30457;53.590;9.922;2023-04-05T17:26:19;14.70;35.20
44729;DHT22;30457;53.590;9.922;2023-04-05T17:30:47;14.70;35.60
44729;DHT22;30457;53.590;9.922;2023-04-05T17:35:13;14.60;35.80
44729;DHT22;30457;53.590;9.922;2023-04-05T17:39:39;14.50;35.80
44729;DHT22;30457;53.590;9.922;2023-04-05T17:44:05;14.40;35.90
44729;DHT22;30457;53.590;9.922;2023-04-05T17:48:30;14.30;36.00
44729;DHT22;30457;53.590;9.922;2023-04-05T17:52:57;14.30;36.40
44729;DHT22;30457;53.590;9.922;2023-04-05T17:57:22;14.10;36.70
44729;DHT22;30457;53.590;9.922;2023-04-05T18:01:48;14.10;36.70
44729;DHT22;30457;53.590;9.922;2023-04-05T18:06:17;14.00;36.80
44729;DHT22;30457;53.590;9.922;2023-04-05T18:10:44;13.90;37.20
44729;DHT22;30457;53.590;9.922;2023-04-05T18:15:10;13.80;37.50
44729;DHT22;30457;53.590;9.922;2023-04-05T18:19:35;13.80;37.80
44729;DHT22;30457;53.590;9.922;2023-04-05T18:24:01;13.70;37.90
44729;DHT22;30457;53.590;9.922;2023-04-05T18:28:26;13.70;38.00
44729;DHT22;30457;53.590;9.922;2023-04-05T18:32:52;13.60;38.00
44729;DHT22;30457;53.590;9.922;2023-04-05T18:37:18;13.60;38.30
44729;DHT22;30457;53.590;9.922;2023-04-05T18:41:43;13.50;38.40
44729;DHT22;30457;53.590;9.922;2023-04-05T18:46:09;13.40;38.50
44729;DHT22;30457;53.590;9.922;2023-04-05T18:50:42;13.40;38.60
44729;DHT22;30457;53.590;9.922;2023-04-05T18:55:08;13.40;38.70
44729;DHT22;30457;53.590;9.922;2023-04-05T18:59:33;13.30;38.20
44729;DHT22;30457;53.590;9.922;2023-04-05T19:03:59;13.20;37.70
44729;DHT22;30457;53.590;9.922;2023-04-05T19:08:25;13.20;37.00
44729;DHT22;30457;53.590;9.922;2023-04-05T19:12:50;13.10;36.80
44729;DHT22;30457;53.590;9.922;2023-04-05T19:17:16;13.00;36.80
44729;DHT22;30457;53.590;9.922;2023-04-05T19:21:41;12.90;36.50
44729;DHT22;30457;53.590;9.922;2023-04-05T19:26:07;12.80;36.70
44729;DHT22;30457;53.590;9.922;2023-04-05T19:30:33;12.70;36.70
44729;DHT22;30457;53.590;9.922;2023-04-05T19:34:59;12.60;36.60
44729;DHT22;30457;53.590;9.922;2023-04-05T19:39:25;12.50;36.60
44729;DHT22;30457;53.590;9.922;2023-04-05T19:43:55;12.40;36.90
44729;DHT22;30457;53.590;9.922;2023-04-05T19:48:40;12.30;37.10
44729;DHT22;30457;53.590;9.922;2023-04-05T19:53:06;12.20;37.30
44729;DHT22;30457;53.590;9.922;2023-04-05T19:57:32;12.10;37.10
44729;DHT22;30457;53.590;9.922;2023-04-05T20:02:10;11.90;37.10
44729;DHT22;30457;53.590;9.922;2023-04-05T20:06:39;11.80;37.10
44729;DHT22;30457;53.590;9.922;2023-04-05T20:11:25;11.60;37.50
44729;DHT22;30457;53.590;9.922;2023-04-05T20:15:51;11.50;37.70
44729;DHT22;30457;53.590;9.922;2023-04-05T20:20:18;11.40;37.80
44729;DHT22;30457;53.590;9.922;2023-04-05T20:24:44;11.30;38.00
44729;DHT22;30457;53.590;9.922;2023-04-05T20:29:25;11.20;38.00
44729;DHT22;30457;53.590;9.922;2023-04-05T20:38:22;10.90;39.10
44729;DHT22;30457;53.590;9.922;2023-04-05T20:42:47;10.80;39.20
44729;DHT22;30457;53.590;9.922;2023-04-05T20:47:13;10.70;39.40
44729;DHT22;30457;53.590;9.922;2023-04-05T20:51:38;10.60;39.00
44729;DHT22;30457;53.590;9.922;2023-04-05T20:56:05;10.50;39.30
44729;DHT22;30457;53.590;9.922;2023-04-05T21:00:31;10.40;39.20
44729;DHT22;30457;53.590;9.922;2023-04-05T21:04:56;10.30;39.40
44729;DHT22;30457;53.590;9.922;2023-04-05T21:09:22;10.20;39.70
44729;DHT22;30457;53.590;9.922;2023-04-05T21:13:49;10.10;40.40
44729;DHT22;30457;53.590;9.922;2023-04-05T21:18:14;10.00;40.30
44729;DHT22;30457;53.590;9.922;2023-04-05T21:22:40;9.90;40.60
44729;DHT22;30457;53.590;9.922;2023-04-05T21:27:06;9.90;40.60
44729;DHT22;30457;53.590;9.922;2023-04-05T21:31:31;9.80;40.60
44729;DHT22;30457;53.590;9.922;2023-04-05T21:35:57;9.70;41.00
44729;DHT22;30457;53.590;9.922;2023-04-05T21:40:22;9.60;40.90
44729;DHT22;30457;53.590;9.922;2023-04-05T21:44:48;9.60;41.10
44729;DHT22;30457;53.590;9.922;2023-04-05T21:49:13;9.50;41.30
44729;DHT22;30457;53.590;9.922;2023-04-05T21:53:39;9.50;41.60
44729;DHT22;30457;53.590;9.922;2023-04-05T21:58:05;9.40;41.70
44729;DHT22;30457;53.590;9.922;2023-04-05T22:02:30;9.30;41.50
44729;DHT22;30457;53.590;9.922;2023-04-05T22:06:56;9.30;41.80
44729;DHT22;30457;53.590;9.922;2023-04-05T22:11:22;9.20;42.00
44729;DHT22;30457;53.590;9.922;2023-04-05T22:15:49;9.20;42.00
44729;DHT22;30457;53.590;9.922;2023-04-05T22:20:14;9.10;42.00
44729;DHT22;30457;53.590;9.922;2023-04-05T22:24:41;9.00;42.10
44729;DHT22;30457;53.590;9.922;2023-04-05T22:29:06;9.00;42.30
44729;DHT22;30457;53.590;9.922;2023-04-05T22:33:32;9.00;42.50
44729;DHT22;30457;53.590;9.922;2023-04-05T22:37:58;8.90;42.50
44729;DHT22;30457;53.590;9.922;2023-04-05T22:42:23;8.80;42.40
44729;DHT22;30457;53.590;9.922;2023-04-05T22:46:49;8.70;42.40
44729;DHT22;30457;53.590;9.922;2023-04-05T22:51:14;8.60;42.50
44729;DHT22;30457;53.590;9.922;2023-04-05T22:55:40;8.50;42.60
44729;DHT22;30457;53.590;9.922;2023-04-05T23:00:07;8.50;42.90
44729;DHT22;30457;53.590;9.922;2023-04-05T23:04:33;8.40;43.00
44729;DHT22;30457;53.590;9.922;2023-04-05T23:08:58;8.40;43.20
44729;DHT22;30457;53.590;9.922;2023-04-05T23:13:26;8.30;43.20
44729;DHT22;30457;53.590;9.922;2023-04-05T23:17:51;8.30;43.10
44729;DHT22;30457;53.590;9.922;2023-04-05T23:22:17;8.20;43.20
44729;DHT22;30457;53.590;9.922;2023-04-05T23:26:42;8.10;43.30
44729;DHT22;30457;53.590;9.922;2023-04-05T23:31:08;8.10;43.40
44729;DHT22;30457;53.590;9.922;2023-04-05T23:35:33;8.00;43.40
44729;DHT22;30457;53.590;9.922;2023-04-05T23:39:59;7.90;43.70
44729;DHT22;30457;53.590;9.922;2023-04-05T23:44:25;7.80;43.60
44729;DHT22;30457;53.590;9.922;2023-04-05T23:48:51;7.70;43.90
44729;DHT22;30457;53.590;9.922;2023-04-05T23:53:16;7.60;44.10
44729;DHT22;30457;53.590;9.922;2023-04-05T23:57:42;7.50;44.30
